Upstream stations:
Downstream station:
SHEF ID: CDNT2 Canadian Rv nr Canadian, TX
STATION TYPE:
Regulating: Stage = 8.00, Flow = 5231
STAGE RIV-FLOW BAT-LOAD
ft cfs volt
Ccp-Rev Ccp-Rev Ccp-Rev
(US/Central)
05/21 00:00 1.15 33 12.33
05/21 01:00 1.14 32 12.33
05/21 02:00 1.14 32 12.25
05/21 03:00 1.16 34 12.25
05/21 04:00 1.16 34 12.25
05/21 05:00 1.15 33 12.17
05/21 06:00 1.14 32 12.17
05/21 07:00 1.15 33 12.17
05/21 08:00 1.15 33 12.17
05/21 09:00 1.16 34 12.25
05/21 10:00 1.13 31 12.33
05/21 11:00 1.14 32 12.57
05/21 12:00 1.15 33 12.89
05/21 13:00 1.16 34 13.13
05/21 14:00 1.14 32 13.29
05/21 15:00 1.13 31 13.37
05/21 16:00 1.14 32 13.37
05/21 17:00 1.14 32 13.21
05/21 18:00 1.14 32 12.81
05/21 19:00 1.13 31 12.57
05/21 20:00 1.13 31 12.49
05/21 21:00 1.13 31 12.41
05/21 22:00 1.13 31 12.41
05/21 23:00 ---- ---- ----